createdAt,value
2022-10-23T00:01:44.641Z,6.05
2022-10-23T00:06:40.416Z,5.68
2022-10-23T00:09:09.025Z,6.03
2022-10-23T00:11:36.489Z,5.57
2022-10-23T00:14:06.313Z,5.93
2022-10-23T00:16:35.682Z,6.43
2022-10-23T00:19:02.435Z,5.68
2022-10-23T00:21:31.718Z,5.65
2022-10-23T00:23:58.364Z,5.15
2022-10-23T00:26:25.609Z,5.45
2022-10-23T00:28:53.925Z,5.63
2022-10-23T00:31:22.150Z,5.47
2022-10-23T00:33:49.641Z,5.95
2022-10-23T00:36:18.655Z,5.65
2022-10-23T00:38:47.801Z,5.45
2022-10-23T00:41:21.370Z,5.40
2022-10-23T00:44:02.191Z,5.63
2022-10-23T00:46:29.756Z,5.65
2022-10-23T00:48:57.201Z,5.88
2022-10-23T00:51:25.710Z,5.70
2022-10-23T00:54:23.080Z,5.50
2022-10-23T00:56:50.335Z,5.38
2022-10-23T00:59:19.601Z,5.22
2022-10-23T01:01:47.661Z,4.53
2022-10-23T01:04:15.372Z,5.78
2022-10-23T01:06:47.991Z,5.20
2022-10-23T01:09:36.828Z,5.05
2022-10-23T01:12:13.456Z,5.45
2022-10-23T01:14:56.198Z,5.88
2022-10-23T01:17:44.430Z,5.50
2022-10-23T01:20:28.790Z,5.35
2022-10-23T01:23:27.424Z,5.70
2022-10-23T01:26:02.449Z,5.13
2022-10-23T01:28:33.777Z,5.28
2022-10-23T01:31:04.847Z,5.85
2022-10-23T01:33:50.833Z,5.10
2022-10-23T01:36:23.880Z,5.50
2022-10-23T01:39:09.092Z,5.45
2022-10-23T01:41:41.673Z,5.18
2022-10-23T01:44:11.326Z,5.43
2022-10-23T01:46:38.574Z,4.70
2022-10-23T01:49:11.534Z,5.20
2022-10-23T01:51:39.840Z,4.72
2022-10-23T01:54:10.850Z,4.38
2022-10-23T01:56:43.851Z,4.95
2022-10-23T01:59:16.450Z,4.75
2022-10-23T02:01:46.874Z,4.63
2022-10-23T02:04:19.024Z,4.53
2022-10-23T02:06:45.739Z,4.65
2022-10-23T02:09:12.581Z,4.88
2022-10-23T02:11:49.175Z,4.70
2022-10-23T02:14:37.890Z,4.45
2022-10-23T02:17:52.242Z,4.05
2022-10-23T02:20:25.007Z,4.10
2022-10-23T02:23:02.648Z,4.30
2022-10-23T02:25:47.442Z,4.22
2022-10-23T02:28:17.977Z,4.00
2022-10-23T02:30:47.477Z,3.80
2022-10-23T02:33:18.010Z,3.65
2022-10-23T02:35:46.830Z,4.00
2022-10-23T02:38:34.089Z,4.00
2022-10-23T02:41:36.365Z,4.03
2022-10-23T02:44:05.651Z,4.00
2022-10-23T02:46:58.897Z,4.07
2022-10-23T02:49:38.569Z,3.22
2022-10-23T02:52:27.342Z,3.38
2022-10-23T02:55:05.518Z,3.50
2022-10-23T02:57:42.921Z,3.70
2022-10-23T03:00:17.210Z,3.47
2022-10-23T03:02:52.818Z,3.83
2022-10-23T03:05:23.554Z,4.00
2022-10-23T03:07:50.738Z,3.92
2022-10-23T03:10:18.098Z,4.00
2022-10-23T03:12:44.991Z,4.10
2022-10-23T03:15:12.794Z,4.38
2022-10-23T03:17:40.701Z,4.30
2022-10-23T03:20:08.969Z,3.65
2022-10-23T03:22:39.218Z,3.55
2022-10-23T03:25:06.591Z,4.07
2022-10-23T03:27:33.662Z,3.78
2022-10-23T03:30:01.000Z,3.88
2022-10-23T03:32:27.856Z,4.10
2022-10-23T03:34:54.780Z,3.75
2022-10-23T03:37:21.462Z,3.22
2022-10-23T03:39:50.414Z,3.50
2022-10-23T03:42:17.783Z,3.97
2022-10-23T03:44:44.371Z,3.97
2022-10-23T03:47:12.270Z,3.90
2022-10-23T03:49:39.649Z,4.03
2022-10-23T03:52:07.628Z,4.25
2022-10-23T03:54:34.629Z,3.95
2022-10-23T03:57:02.155Z,3.97
2022-10-23T03:59:32.094Z,4.13
2022-10-23T04:02:01.466Z,3.80
2022-10-23T04:04:28.160Z,3.90
2022-10-23T04:06:56.950Z,3.78
2022-10-23T04:09:24.115Z,3.72
2022-10-23T04:11:50.576Z,4.03
2022-10-23T04:14:19.379Z,3.75
2022-10-23T04:16:46.224Z,3.88
2022-10-23T04:19:12.747Z,3.90
2022-10-23T04:21:39.942Z,3.25
2022-10-23T04:24:06.798Z,4.13
2022-10-23T04:26:33.415Z,3.75
2022-10-23T04:29:02.472Z,3.63
2022-10-23T04:31:29.661Z,3.70
2022-10-23T04:34:00.163Z,3.78
2022-10-23T04:36:26.778Z,3.58
2022-10-23T04:38:53.336Z,3.70
2022-10-23T04:41:19.864Z,3.28
2022-10-23T04:43:48.739Z,3.70
2022-10-23T04:46:15.576Z,3.67
2022-10-23T04:48:42.552Z,3.33
2022-10-23T04:51:10.306Z,3.13
2022-10-23T04:53:39.158Z,3.45
2022-10-23T04:56:06.249Z,3.30
2022-10-23T04:58:33.059Z,3.85
2022-10-23T05:01:00.111Z,3.50
2022-10-23T05:03:26.937Z,3.90
2022-10-23T05:05:55.705Z,3.67
2022-10-23T05:08:23.623Z,4.13
2022-10-23T05:10:50.275Z,3.38
2022-10-23T05:13:20.852Z,3.70
2022-10-23T05:15:49.385Z,4.20
2022-10-23T05:18:26.732Z,4.10
2022-10-23T05:20:59.624Z,4.07
2022-10-23T05:23:30.077Z,3.83
2022-10-23T05:25:56.726Z,4.60
2022-10-23T05:28:24.220Z,3.83
2022-10-23T05:30:51.178Z,3.67
2022-10-23T05:33:18.351Z,3.50
2022-10-23T05:35:45.535Z,3.78
2022-10-23T05:38:14.436Z,4.07
2022-10-23T05:40:41.003Z,3.70
2022-10-23T05:43:08.526Z,4.05
2022-10-23T05:45:35.859Z,3.55
2022-10-23T05:48:10.953Z,3.57
2022-10-23T05:50:49.492Z,3.67
2022-10-23T05:53:16.695Z,4.37
2022-10-23T05:55:44.076Z,3.83
2022-10-23T05:58:10.621Z,4.13
2022-10-23T06:00:37.607Z,3.70
2022-10-23T06:03:05.164Z,4.10
2022-10-23T06:05:34.307Z,4.30
2022-10-23T06:08:01.400Z,4.28
2022-10-23T06:10:28.661Z,3.90
2022-10-23T06:12:55.545Z,4.03
2022-10-23T06:15:22.066Z,4.25
2022-10-23T06:17:48.790Z,4.00
2022-10-23T06:20:15.946Z,4.45
2022-10-23T06:22:45.273Z,4.53
2022-10-23T06:25:12.115Z,4.45
2022-10-23T06:27:39.012Z,5.00
2022-10-23T06:30:07.810Z,4.53
2022-10-23T06:32:34.622Z,4.25
2022-10-23T06:35:01.226Z,4.15
2022-10-23T06:37:27.830Z,4.00
2022-10-23T06:39:54.760Z,4.38
2022-10-23T06:42:21.636Z,4.13
2022-10-23T06:44:48.403Z,3.75
2022-10-23T06:47:15.285Z,4.25
2022-10-23T06:49:41.852Z,4.18
2022-10-23T06:52:14.503Z,3.83
2022-10-23T06:54:55.855Z,4.20
2022-10-23T06:57:22.824Z,3.80
2022-10-23T06:59:50.816Z,4.30
2022-10-23T07:02:19.790Z,4.88
2022-10-23T07:04:47.077Z,3.85
2022-10-23T07:07:13.707Z,4.00
2022-10-23T07:09:40.545Z,4.57
2022-10-23T07:12:07.805Z,3.85
2022-10-23T07:14:34.528Z,4.00
2022-10-23T07:17:01.504Z,4.28
2022-10-23T07:19:28.103Z,3.63
2022-10-23T07:21:57.356Z,3.38
2022-10-23T07:24:24.192Z,3.88
2022-10-23T07:29:26.040Z,3.78
2022-10-23T07:31:52.864Z,4.28
2022-10-23T07:34:19.344Z,4.38
2022-10-23T07:36:45.865Z,3.90
2022-10-23T07:39:12.654Z,3.88
2022-10-23T07:41:39.449Z,3.65
2022-10-23T07:44:08.517Z,3.70
2022-10-23T07:46:35.578Z,3.75
2022-10-23T07:49:02.625Z,3.78
2022-10-23T07:51:29.476Z,3.53
2022-10-23T07:53:56.348Z,3.70
2022-10-23T07:56:26.254Z,4.05
2022-10-23T07:58:56.368Z,3.20
2022-10-23T08:01:30.100Z,3.55
2022-10-23T08:03:56.791Z,3.45
2022-10-23T08:06:23.869Z,3.70
2022-10-23T08:08:50.712Z,3.53
2022-10-23T08:11:24.780Z,3.65
2022-10-23T08:13:56.678Z,3.53
2022-10-23T08:16:26.592Z,3.45
2022-10-23T08:18:53.122Z,3.45
2022-10-23T08:21:20.083Z,3.38
2022-10-23T08:23:46.946Z,3.70
2022-10-23T08:26:14.220Z,3.55
2022-10-23T08:28:41.787Z,4.00
2022-10-23T08:31:17.118Z,3.58
2022-10-23T08:33:44.591Z,3.13
2022-10-23T08:36:18.681Z,3.50
2022-10-23T08:38:45.559Z,3.50
2022-10-23T08:41:35.071Z,3.33
2022-10-23T08:44:31.979Z,3.53
2022-10-23T08:47:00.042Z,3.05
2022-10-23T08:52:14.008Z,2.88
2022-10-23T08:54:52.440Z,3.00
2022-10-23T08:57:24.291Z,2.72
2022-10-23T09:00:05.075Z,3.17
2022-10-23T09:02:52.427Z,2.83
2022-10-23T09:05:33.638Z,2.65
2022-10-23T09:08:16.414Z,2.90
2022-10-23T09:11:01.625Z,2.50
2022-10-23T09:13:43.638Z,3.00
2022-10-23T09:16:44.711Z,2.78
2022-10-23T09:19:19.900Z,2.75
2022-10-23T09:21:50.215Z,4.00
2022-10-23T09:24:19.343Z,2.75
2022-10-23T09:26:50.833Z,3.08
2022-10-23T09:29:33.212Z,2.85
2022-10-23T09:32:01.732Z,2.88
2022-10-23T09:34:30.661Z,2.90
2022-10-23T09:37:11.452Z,3.45
2022-10-23T09:39:38.535Z,3.35
2022-10-23T09:42:23.544Z,3.13
2022-10-23T09:44:53.706Z,2.90
2022-10-23T09:47:24.097Z,2.83
2022-10-23T09:49:53.988Z,3.13
2022-10-23T09:52:39.321Z,3.70
2022-10-23T09:55:21.796Z,2.90
2022-10-23T09:57:49.394Z,3.00
2022-10-23T10:00:18.216Z,2.78
2022-10-23T10:03:18.076Z,2.53
2022-10-23T10:05:45.737Z,2.60
2022-10-23T10:08:24.152Z,2.75
2022-10-23T10:10:55.785Z,2.53
2022-10-23T10:14:02.110Z,2.50
2022-10-23T10:16:52.252Z,2.60
2022-10-23T10:19:43.086Z,2.90
2022-10-23T10:22:39.905Z,2.58
2022-10-23T10:25:12.678Z,2.28
2022-10-23T10:28:01.022Z,2.70
2022-10-23T10:30:38.692Z,2.50
2022-10-23T10:33:24.898Z,2.63
2022-10-23T10:36:15.452Z,2.58
2022-10-23T10:38:50.290Z,2.70
2022-10-23T10:41:48.087Z,2.53
2022-10-23T10:44:15.224Z,2.63
2022-10-23T10:46:56.486Z,2.22
2022-10-23T10:49:22.932Z,2.28
2022-10-23T10:51:57.870Z,2.78
2022-10-23T10:54:41.290Z,2.17
2022-10-23T10:57:29.740Z,2.15
2022-10-23T11:00:03.876Z,2.40
2022-10-23T11:02:44.320Z,2.25
2022-10-23T11:05:22.514Z,2.22
2022-10-23T11:08:06.409Z,2.22
2022-10-23T11:10:35.203Z,2.40
2022-10-23T11:13:02.820Z,2.25
2022-10-23T11:15:39.013Z,2.28
2022-10-23T11:18:15.999Z,2.30
2022-10-23T11:20:58.065Z,2.53
2022-10-23T11:23:48.663Z,2.05
2022-10-23T11:26:43.530Z,2.20
2022-10-23T11:29:45.214Z,2.42
2022-10-23T11:35:22.217Z,2.03
2022-10-23T11:38:24.379Z,2.22
2022-10-23T11:40:54.860Z,2.25
2022-10-23T11:43:34.477Z,2.25
2022-10-23T11:46:35.556Z,2.50
2022-10-23T11:49:06.452Z,2.20
2022-10-23T11:51:38.443Z,1.90
2022-10-23T11:54:27.505Z,2.03
2022-10-23T11:57:17.919Z,2.58
2022-10-23T11:59:47.852Z,2.30
2022-10-23T12:02:39.050Z,2.50
2022-10-23T12:05:25.919Z,2.30
2022-10-23T12:08:01.427Z,2.33
2022-10-23T12:10:35.063Z,2.20
2022-10-23T12:13:08.983Z,2.13
2022-10-23T12:15:38.553Z,2.42
2022-10-23T12:18:23.198Z,2.33
2022-10-23T12:21:04.934Z,2.33
2022-10-23T12:23:47.374Z,2.67
2022-10-23T12:26:23.757Z,2.45
2022-10-23T12:29:30.592Z,2.13
2022-10-23T12:32:09.243Z,2.13
2022-10-23T12:35:04.113Z,2.10
2022-10-23T12:38:04.635Z,2.20
2022-10-23T12:40:33.772Z,1.95
2022-10-23T12:43:04.469Z,2.60
2022-10-23T12:45:40.119Z,2.20
2022-10-23T12:48:18.082Z,2.13
2022-10-23T12:50:51.061Z,2.17
2022-10-23T12:53:20.570Z,2.40
2022-10-23T12:55:56.500Z,2.22
2022-10-23T12:58:30.983Z,2.03
2022-10-23T13:01:00.506Z,2.10
2022-10-23T13:03:30.215Z,2.10
2022-10-23T13:05:59.070Z,1.85
2022-10-23T13:08:33.714Z,2.10
2022-10-23T13:11:00.848Z,2.03
2022-10-23T13:13:28.481Z,2.10
2022-10-23T13:15:55.049Z,2.25
2022-10-23T13:18:27.802Z,2.47
2022-10-23T13:20:56.907Z,2.05
2022-10-23T13:23:34.930Z,2.38
2022-10-23T13:26:24.309Z,2.42
2022-10-23T13:28:51.874Z,2.70
2022-10-23T13:31:18.614Z,2.30
2022-10-23T13:33:53.113Z,1.88
2022-10-23T13:36:24.587Z,2.28
2022-10-23T13:39:12.698Z,2.10
2022-10-23T13:41:44.893Z,2.00
2022-10-23T13:44:17.290Z,2.13
2022-10-23T13:46:44.824Z,2.47
2022-10-23T13:49:11.397Z,1.85
2022-10-23T13:51:45.605Z,1.90
2022-10-23T13:54:18.724Z,2.30
2022-10-23T13:56:45.701Z,2.20
2022-10-23T13:59:14.880Z,1.80
2022-10-23T14:01:42.041Z,2.28
2022-10-23T14:04:11.649Z,1.73
2022-10-23T14:06:39.723Z,2.10
2022-10-23T14:09:08.903Z,2.10
2022-10-23T14:11:35.802Z,2.38
2022-10-23T14:14:02.934Z,1.97
2022-10-23T14:16:30.109Z,2.10
2022-10-23T14:18:57.728Z,1.50
2022-10-23T14:21:25.771Z,1.92
2022-10-23T14:23:54.185Z,2.00
2022-10-23T14:26:25.876Z,2.30
2022-10-23T14:28:53.932Z,1.67
2022-10-23T14:31:21.823Z,1.83
2022-10-23T14:33:58.718Z,2.08
2022-10-23T14:36:30.971Z,2.20
2022-10-23T14:39:05.809Z,2.38
2022-10-23T14:41:32.607Z,2.03
2022-10-23T14:43:59.743Z,2.20
2022-10-23T14:46:28.283Z,2.17
2022-10-23T14:48:58.750Z,2.10
2022-10-23T14:51:30.376Z,2.60
2022-10-23T14:54:02.231Z,2.10
2022-10-23T14:56:32.050Z,2.30
2022-10-23T14:59:03.000Z,2.10
2022-10-23T15:01:36.108Z,2.20
2022-10-23T15:04:03.295Z,2.42
2022-10-23T15:06:30.075Z,1.95
2022-10-23T15:08:57.396Z,2.20
2022-10-23T15:11:25.533Z,2.20
2022-10-23T15:13:55.181Z,1.98
2022-10-23T15:16:23.154Z,2.20
2022-10-23T15:18:49.810Z,2.03
2022-10-23T15:21:16.714Z,1.98
2022-10-23T15:23:45.247Z,2.53
2022-10-23T15:26:17.244Z,2.33
2022-10-23T15:28:44.019Z,2.03
2022-10-23T15:31:28.929Z,2.03
2022-10-23T15:33:58.959Z,2.45
2022-10-23T15:36:26.323Z,2.30
2022-10-23T15:38:53.054Z,1.95
2022-10-23T15:41:29.280Z,2.55
2022-10-23T15:43:56.240Z,2.45
2022-10-23T15:46:22.803Z,2.53
2022-10-23T15:48:49.680Z,2.72
2022-10-23T15:51:16.547Z,2.40
2022-10-23T15:53:43.253Z,1.95
2022-10-23T15:56:09.935Z,1.95
2022-10-23T15:58:36.880Z,2.55
2022-10-23T16:01:06.780Z,2.50
2022-10-23T16:03:39.323Z,2.65
2022-10-23T16:06:11.902Z,2.38
2022-10-23T16:08:39.007Z,2.20
2022-10-23T16:11:18.008Z,2.33
2022-10-23T16:13:45.192Z,2.25
2022-10-23T16:16:12.447Z,2.40
2022-10-23T16:18:41.709Z,2.22
2022-10-23T16:21:15.731Z,2.40
2022-10-23T16:23:42.505Z,2.88
2022-10-23T16:26:11.608Z,2.83
2022-10-23T16:28:38.581Z,2.25
2022-10-23T16:31:10.173Z,2.63
2022-10-23T16:33:36.850Z,2.20
2022-10-23T16:36:08.375Z,2.80
2022-10-23T16:38:36.223Z,2.85
2022-10-23T16:43:34.849Z,2.67
2022-10-23T16:46:12.200Z,2.60
2022-10-23T16:48:39.288Z,2.50
2022-10-23T16:51:11.898Z,2.13
2022-10-23T16:53:39.253Z,2.05
2022-10-23T16:56:08.542Z,2.80
2022-10-23T16:58:36.143Z,2.50
2022-10-23T17:01:11.296Z,2.70
2022-10-23T17:03:40.809Z,2.60
2022-10-23T17:06:13.170Z,2.72
2022-10-23T17:08:41.076Z,2.40
2022-10-23T17:11:12.177Z,2.50
2022-10-23T17:13:47.866Z,1.92
2022-10-23T17:16:29.606Z,2.08
2022-10-23T17:18:59.584Z,2.67
2022-10-23T17:21:26.415Z,2.67
2022-10-23T17:23:53.048Z,2.67
2022-10-23T17:26:26.841Z,2.25
2022-10-23T17:28:54.210Z,2.42
2022-10-23T17:31:24.290Z,2.80
2022-10-23T17:33:53.877Z,2.30
2022-10-23T17:36:21.677Z,2.58
2022-10-23T17:41:17.211Z,2.53
2022-10-23T17:43:44.848Z,2.63
2022-10-23T17:46:13.315Z,2.38
2022-10-23T17:48:43.475Z,2.58
2022-10-23T17:51:24.215Z,2.58
2022-10-23T17:53:53.223Z,2.78
2022-10-23T17:56:27.128Z,2.45
2022-10-23T17:58:56.583Z,2.47
2022-10-23T18:01:26.142Z,2.63
2022-10-23T18:03:54.244Z,2.78
2022-10-23T18:06:29.552Z,2.65
2022-10-23T18:08:57.025Z,2.17
2022-10-23T18:11:26.458Z,2.70
2022-10-23T18:13:57.011Z,1.80
2022-10-23T18:16:24.587Z,2.40
2022-10-23T18:18:52.933Z,2.70
2022-10-23T18:21:22.745Z,2.58
2022-10-23T18:23:51.844Z,2.55
2022-10-23T18:26:24.304Z,2.90
2022-10-23T18:28:52.834Z,2.35
2022-10-23T18:31:20.889Z,2.55
2022-10-23T18:33:47.967Z,2.20
2022-10-23T18:36:23.149Z,2.20
2022-10-23T18:38:50.183Z,2.83
2022-10-23T18:41:18.532Z,2.40
2022-10-23T18:43:45.748Z,2.85
2022-10-23T18:46:15.870Z,2.53
2022-10-23T18:48:43.872Z,3.08
2022-10-23T18:51:26.208Z,2.83
2022-10-23T18:53:53.799Z,2.72
2022-10-23T18:56:27.097Z,2.63
2022-10-23T18:58:58.428Z,2.60
2022-10-23T19:01:27.213Z,2.05
2022-10-23T19:06:23.812Z,2.90
2022-10-23T19:08:51.391Z,2.63
2022-10-23T19:11:19.549Z,2.50
2022-10-23T19:13:48.720Z,2.42
2022-10-23T19:16:24.544Z,2.53
2022-10-23T19:19:05.618Z,2.50
2022-10-23T19:21:36.842Z,2.88
2022-10-23T19:24:11.282Z,2.20
2022-10-23T19:26:41.543Z,1.70
2022-10-23T19:29:10.272Z,1.95
2022-10-23T19:31:39.148Z,2.30
2022-10-23T19:34:06.091Z,2.75
2022-10-23T19:36:32.754Z,2.20
2022-10-23T19:38:59.759Z,2.08
2022-10-23T19:41:26.376Z,1.67
2022-10-23T19:43:52.878Z,1.85
2022-10-23T19:46:20.038Z,1.52
2022-10-23T19:48:49.842Z,1.65
2022-10-23T19:51:16.879Z,1.80
2022-10-23T19:53:43.884Z,2.37
2022-10-23T19:56:13.125Z,1.63
2022-10-23T19:58:41.846Z,2.28
2022-10-23T20:01:14.646Z,1.75
2022-10-23T20:03:42.819Z,2.83
2022-10-23T20:06:11.764Z,2.60
2022-10-23T20:08:43.391Z,2.22
2022-10-23T20:11:17.926Z,2.58
2022-10-23T20:13:47.933Z,2.33
2022-10-23T20:16:35.474Z,2.70
2022-10-23T20:21:30.933Z,1.77
2022-10-23T20:23:58.601Z,2.30
2022-10-23T20:26:25.903Z,2.00
2022-10-23T20:28:54.648Z,1.80
2022-10-23T20:31:23.822Z,2.03
2022-10-23T20:33:51.271Z,1.83
2022-10-23T20:36:30.709Z,1.55
2022-10-23T20:38:59.053Z,1.67
2022-10-23T20:41:29.089Z,2.22
2022-10-23T20:43:56.277Z,1.45
2022-10-23T20:46:25.951Z,1.60
2022-10-23T20:48:53.369Z,1.40
2022-10-23T20:51:22.365Z,1.63
2022-10-23T20:53:49.480Z,1.45
2022-10-23T20:56:20.582Z,1.30
2022-10-23T20:58:47.324Z,1.08
2022-10-23T21:01:19.242Z,1.23
2022-10-23T21:03:51.311Z,1.20
2022-10-23T21:06:19.412Z,1.25
2022-10-23T21:08:46.348Z,0.93
2022-10-23T21:11:19.547Z,1.30
2022-10-23T21:13:46.210Z,0.95
2022-10-23T21:16:34.020Z,1.33
2022-10-23T21:19:02.006Z,1.20
2022-10-23T21:21:29.707Z,1.10
2022-10-23T21:24:17.952Z,0.95
2022-10-23T21:26:45.781Z,1.02
2022-10-23T21:31:45.891Z,1.10
2022-10-23T21:34:15.104Z,1.00
2022-10-23T21:37:07.553Z,1.33
2022-10-23T21:39:33.109Z,0.98
2022-10-23T21:42:00.078Z,0.97
2022-10-23T21:44:29.244Z,1.02
2022-10-23T21:46:58.670Z,0.93
2022-10-23T21:49:27.742Z,0.82
2022-10-23T21:51:55.144Z,0.90
2022-10-23T21:54:22.024Z,1.13
2022-10-23T21:56:50.819Z,1.42
2022-10-23T21:59:20.453Z,1.02
2022-10-23T22:01:51.890Z,1.20
2022-10-23T22:04:19.978Z,1.10
2022-10-23T22:06:48.706Z,1.05
2022-10-23T22:09:19.506Z,1.20
2022-10-23T22:11:47.962Z,1.05
2022-10-23T22:14:14.442Z,1.73
2022-10-23T22:16:42.750Z,1.10
2022-10-23T22:19:14.860Z,0.88
2022-10-23T22:21:44.205Z,1.20
2022-10-23T22:24:14.327Z,1.17
2022-10-23T22:26:44.272Z,1.35
2022-10-23T22:29:13.514Z,1.50
2022-10-23T22:31:45.777Z,1.67
2022-10-23T22:34:27.193Z,1.25
2022-10-23T22:37:07.320Z,1.00
2022-10-23T22:39:36.999Z,1.30
2022-10-23T22:42:04.145Z,1.13
2022-10-23T22:44:30.833Z,1.30
2022-10-23T22:46:58.210Z,1.17
2022-10-23T22:49:25.063Z,1.30
2022-10-23T22:51:51.540Z,1.20
2022-10-23T22:54:18.549Z,1.42
2022-10-23T22:56:45.034Z,1.37
2022-10-23T22:59:12.721Z,1.20
2022-10-23T23:01:44.768Z,1.48
2022-10-23T23:04:36.581Z,1.40
2022-10-23T23:07:02.485Z,1.30
2022-10-23T23:09:29.601Z,1.42
2022-10-23T23:11:56.404Z,1.70
2022-10-23T23:14:24.572Z,1.23
2022-10-23T23:16:52.883Z,1.05
2022-10-23T23:19:19.907Z,1.02
2022-10-23T23:21:49.247Z,1.20
2022-10-23T23:24:16.051Z,1.40
2022-10-23T23:26:42.603Z,1.63
2022-10-23T23:29:09.442Z,1.00
2022-10-23T23:31:38.540Z,1.40
2022-10-23T23:34:05.446Z,1.10
2022-10-23T23:36:32.627Z,1.33
2022-10-23T23:38:59.668Z,1.40
2022-10-23T23:41:31.171Z,1.50
2022-10-23T23:43:58.853Z,1.50
2022-10-23T23:46:26.237Z,2.00
2022-10-23T23:48:53.045Z,1.52
2022-10-23T23:51:25.005Z,1.67
2022-10-23T23:53:52.445Z,1.60
2022-10-23T23:56:19.809Z,2.33
2022-10-23T23:58:46.999Z,2.50
